sensor_id;sensor_type;location;lat;lon;timestamp;P1;durP1;ratioP1;P2;durP2;ratioP2
70253;SDS011;57649;42.968;1.608;2023-03-01T00:00:52;21.00;;;13.95;;
70253;SDS011;57649;42.968;1.608;2023-03-01T00:03:17;23.20;;;15.00;;
70253;SDS011;57649;42.968;1.608;2023-03-01T00:05:46;20.55;;;14.48;;
70253;SDS011;57649;42.968;1.608;2023-03-01T00:08:12;23.07;;;15.70;;
70253;SDS011;57649;42.968;1.608;2023-03-01T00:10:37;25.77;;;15.50;;
70253;SDS011;57649;42.968;1.608;2023-03-01T00:13:04;23.90;;;14.75;;
70253;SDS011;57649;42.968;1.608;2023-03-01T00:15:30;23.02;;;15.25;;
70253;SDS011;57649;42.968;1.608;2023-03-01T00:17:56;21.58;;;14.40;;
70253;SDS011;57649;42.968;1.608;2023-03-01T00:20:22;27.27;;;15.98;;
70253;SDS011;57649;42.968;1.608;2023-03-01T00:22:47;25.65;;;16.30;;
70253;SDS011;57649;42.968;1.608;2023-03-01T00:25:13;25.00;;;16.70;;
70253;SDS011;57649;42.968;1.608;2023-03-01T00:27:38;21.88;;;15.43;;
70253;SDS011;57649;42.968;1.608;2023-03-01T00:30:04;27.27;;;19.63;;
70253;SDS011;57649;42.968;1.608;2023-03-01T00:32:30;19.92;;;13.63;;
70253;SDS011;57649;42.968;1.608;2023-03-01T00:34:55;15.63;;;10.80;;
70253;SDS011;57649;42.968;1.608;2023-03-01T00:37:21;21.02;;;14.10;;
70253;SDS011;57649;42.968;1.608;2023-03-01T00:39:47;19.45;;;13.20;;
70253;SDS011;57649;42.968;1.608;2023-03-01T00:42:13;18.75;;;12.90;;
70253;SDS011;57649;42.968;1.608;2023-03-01T00:44:38;21.35;;;13.80;;
70253;SDS011;57649;42.968;1.608;2023-03-01T00:47:04;25.45;;;17.23;;
70253;SDS011;57649;42.968;1.608;2023-03-01T00:49:29;30.13;;;19.02;;
70253;SDS011;57649;42.968;1.608;2023-03-01T00:51:54;28.30;;;18.00;;
70253;SDS011;57649;42.968;1.608;2023-03-01T00:54:20;20.75;;;13.70;;
70253;SDS011;57649;42.968;1.608;2023-03-01T00:56:45;18.85;;;13.68;;
70253;SDS011;57649;42.968;1.608;2023-03-01T00:59:11;17.42;;;12.15;;
70253;SDS011;57649;42.968;1.608;2023-03-01T01:01:36;18.70;;;12.50;;
70253;SDS011;57649;42.968;1.608;2023-03-01T01:04:03;20.13;;;13.52;;
70253;SDS011;57649;42.968;1.608;2023-03-01T01:06:35;17.17;;;12.20;;
70253;SDS011;57649;42.968;1.608;2023-03-01T01:09:10;21.52;;;13.70;;
70253;SDS011;57649;42.968;1.608;2023-03-01T01:11:47;24.52;;;14.85;;
70253;SDS011;57649;42.968;1.608;2023-03-01T01:14:15;20.83;;;14.27;;
70253;SDS011;57649;42.968;1.608;2023-03-01T01:16:41;17.65;;;13.07;;
70253;SDS011;57649;42.968;1.608;2023-03-01T01:19:07;17.15;;;11.40;;
70253;SDS011;57649;42.968;1.608;2023-03-01T01:21:33;16.73;;;12.85;;
70253;SDS011;57649;42.968;1.608;2023-03-01T01:23:58;19.58;;;14.90;;
70253;SDS011;57649;42.968;1.608;2023-03-01T01:26:25;17.70;;;12.82;;
70253;SDS011;57649;42.968;1.608;2023-03-01T01:28:55;16.23;;;10.15;;
70253;SDS011;57649;42.968;1.608;2023-03-01T01:31:21;16.52;;;12.45;;
70253;SDS011;57649;42.968;1.608;2023-03-01T01:33:48;14.93;;;11.10;;
70253;SDS011;57649;42.968;1.608;2023-03-01T01:36:14;13.15;;;9.32;;
70253;SDS011;57649;42.968;1.608;2023-03-01T01:38:41;12.73;;;9.88;;
70253;SDS011;57649;42.968;1.608;2023-03-01T01:41:07;16.15;;;10.70;;
70253;SDS011;57649;42.968;1.608;2023-03-01T01:43:35;13.52;;;9.95;;
70253;SDS011;57649;42.968;1.608;2023-03-01T01:46:05;16.38;;;11.13;;
70253;SDS011;57649;42.968;1.608;2023-03-01T01:49:01;17.38;;;11.48;;
70253;SDS011;57649;42.968;1.608;2023-03-01T01:51:29;15.77;;;11.45;;
70253;SDS011;57649;42.968;1.608;2023-03-01T01:54:06;17.65;;;11.95;;
70253;SDS011;57649;42.968;1.608;2023-03-01T01:56:44;19.98;;;11.93;;
70253;SDS011;57649;42.968;1.608;2023-03-01T01:59:15;14.10;;;10.15;;
70253;SDS011;57649;42.968;1.608;2023-03-01T02:01:40;19.83;;;11.45;;
70253;SDS011;57649;42.968;1.608;2023-03-01T02:04:07;17.35;;;11.23;;
70253;SDS011;57649;42.968;1.608;2023-03-01T02:06:53;17.42;;;11.27;;
70253;SDS011;57649;42.968;1.608;2023-03-01T02:09:25;13.75;;;9.98;;
70253;SDS011;57649;42.968;1.608;2023-03-01T02:11:51;20.02;;;11.23;;
70253;SDS011;57649;42.968;1.608;2023-03-01T02:14:18;14.27;;;9.80;;
70253;SDS011;57649;42.968;1.608;2023-03-01T02:16:43;15.85;;;10.07;;
70253;SDS011;57649;42.968;1.608;2023-03-01T02:19:11;14.23;;;9.07;;
70253;SDS011;57649;42.968;1.608;2023-03-01T02:27:07;13.45;;;9.95;;
70253;SDS011;57649;42.968;1.608;2023-03-01T02:29:34;13.95;;;10.30;;
70253;SDS011;57649;42.968;1.608;2023-03-01T02:32:00;14.13;;;9.98;;
70253;SDS011;57649;42.968;1.608;2023-03-01T02:34:28;13.23;;;9.50;;
70253;SDS011;57649;42.968;1.608;2023-03-01T02:37:04;16.92;;;10.90;;
70253;SDS011;57649;42.968;1.608;2023-03-01T02:39:37;15.60;;;9.40;;
70253;SDS011;57649;42.968;1.608;2023-03-01T02:42:09;16.38;;;10.68;;
70253;SDS011;57649;42.968;1.608;2023-03-01T02:44:37;16.40;;;11.63;;
70253;SDS011;57649;42.968;1.608;2023-03-01T02:47:03;19.88;;;12.40;;
70253;SDS011;57649;42.968;1.608;2023-03-01T02:49:31;14.77;;;10.68;;
70253;SDS011;57649;42.968;1.608;2023-03-01T02:57:19;16.13;;;10.80;;
70253;SDS011;57649;42.968;1.608;2023-03-01T02:59:47;13.05;;;9.90;;
70253;SDS011;57649;42.968;1.608;2023-03-01T03:05:03;12.82;;;9.27;;
70253;SDS011;57649;42.968;1.608;2023-03-01T03:07:31;12.40;;;9.43;;
70253;SDS011;57649;42.968;1.608;2023-03-01T03:09:58;17.08;;;9.95;;
70253;SDS011;57649;42.968;1.608;2023-03-01T03:12:23;15.02;;;10.13;;
70253;SDS011;57649;42.968;1.608;2023-03-01T03:14:48;14.98;;;10.25;;
70253;SDS011;57649;42.968;1.608;2023-03-01T03:17:14;14.48;;;9.88;;
70253;SDS011;57649;42.968;1.608;2023-03-01T03:19:39;13.38;;;9.82;;
70253;SDS011;57649;42.968;1.608;2023-03-01T03:22:04;14.98;;;9.63;;
70253;SDS011;57649;42.968;1.608;2023-03-01T03:24:30;14.00;;;10.18;;
70253;SDS011;57649;42.968;1.608;2023-03-01T03:27:03;17.52;;;9.80;;
70253;SDS011;57649;42.968;1.608;2023-03-01T03:29:29;14.30;;;10.15;;
70253;SDS011;57649;42.968;1.608;2023-03-01T03:31:54;12.75;;;10.50;;
70253;SDS011;57649;42.968;1.608;2023-03-01T03:34:19;11.90;;;8.82;;
70253;SDS011;57649;42.968;1.608;2023-03-01T03:36:45;12.77;;;9.75;;
70253;SDS011;57649;42.968;1.608;2023-03-01T03:39:10;13.00;;;9.98;;
70253;SDS011;57649;42.968;1.608;2023-03-01T03:41:35;13.77;;;10.00;;
70253;SDS011;57649;42.968;1.608;2023-03-01T03:44:01;15.35;;;9.88;;
70253;SDS011;57649;42.968;1.608;2023-03-01T03:46:26;12.75;;;9.25;;
70253;SDS011;57649;42.968;1.608;2023-03-01T03:48:52;13.88;;;10.68;;
70253;SDS011;57649;42.968;1.608;2023-03-01T03:51:17;12.05;;;9.10;;
70253;SDS011;57649;42.968;1.608;2023-03-01T03:53:43;15.50;;;10.52;;
70253;SDS011;57649;42.968;1.608;2023-03-01T03:56:09;14.68;;;10.63;;
70253;SDS011;57649;42.968;1.608;2023-03-01T03:58:36;16.33;;;11.70;;
70253;SDS011;57649;42.968;1.608;2023-03-01T04:01:02;14.05;;;10.18;;
70253;SDS011;57649;42.968;1.608;2023-03-01T04:03:28;14.05;;;10.38;;
70253;SDS011;57649;42.968;1.608;2023-03-01T04:05:56;12.02;;;10.27;;
70253;SDS011;57649;42.968;1.608;2023-03-01T04:08:25;15.10;;;11.00;;
70253;SDS011;57649;42.968;1.608;2023-03-01T04:10:52;13.57;;;10.02;;
70253;SDS011;57649;42.968;1.608;2023-03-01T04:13:22;13.50;;;9.77;;
70253;SDS011;57649;42.968;1.608;2023-03-01T04:15:50;14.88;;;10.68;;
70253;SDS011;57649;42.968;1.608;2023-03-01T04:18:16;15.70;;;10.30;;
70253;SDS011;57649;42.968;1.608;2023-03-01T04:20:43;14.75;;;10.07;;
70253;SDS011;57649;42.968;1.608;2023-03-01T04:23:11;19.10;;;10.88;;
70253;SDS011;57649;42.968;1.608;2023-03-01T04:28:19;13.10;;;9.68;;
70253;SDS011;57649;42.968;1.608;2023-03-01T04:30:49;12.35;;;9.23;;
70253;SDS011;57649;42.968;1.608;2023-03-01T04:33:15;16.85;;;10.63;;
70253;SDS011;57649;42.968;1.608;2023-03-01T04:35:41;11.80;;;9.35;;
70253;SDS011;57649;42.968;1.608;2023-03-01T04:38:06;14.32;;;9.43;;
70253;SDS011;57649;42.968;1.608;2023-03-01T04:40:33;13.05;;;9.65;;
70253;SDS011;57649;42.968;1.608;2023-03-01T04:42:59;12.23;;;9.45;;
70253;SDS011;57649;42.968;1.608;2023-03-01T04:45:24;16.15;;;10.45;;
70253;SDS011;57649;42.968;1.608;2023-03-01T04:47:49;12.13;;;10.02;;
70253;SDS011;57649;42.968;1.608;2023-03-01T04:50:17;15.93;;;10.45;;
70253;SDS011;57649;42.968;1.608;2023-03-01T04:52:45;13.73;;;10.20;;
70253;SDS011;57649;42.968;1.608;2023-03-01T04:55:11;15.73;;;11.02;;
70253;SDS011;57649;42.968;1.608;2023-03-01T04:57:38;13.73;;;11.18;;
70253;SDS011;57649;42.968;1.608;2023-03-01T05:00:04;17.08;;;11.65;;
70253;SDS011;57649;42.968;1.608;2023-03-01T05:03:06;13.00;;;10.32;;
70253;SDS011;57649;42.968;1.608;2023-03-01T05:05:31;14.15;;;10.18;;
70253;SDS011;57649;42.968;1.608;2023-03-01T05:08:00;16.35;;;10.63;;
70253;SDS011;57649;42.968;1.608;2023-03-01T05:10:27;13.65;;;9.20;;
70253;SDS011;57649;42.968;1.608;2023-03-01T05:12:54;13.75;;;9.68;;
70253;SDS011;57649;42.968;1.608;2023-03-01T05:15:20;14.63;;;10.65;;
70253;SDS011;57649;42.968;1.608;2023-03-01T05:17:47;15.05;;;10.80;;
70253;SDS011;57649;42.968;1.608;2023-03-01T05:20:13;15.70;;;12.60;;
70253;SDS011;57649;42.968;1.608;2023-03-01T05:22:38;14.80;;;11.57;;
70253;SDS011;57649;42.968;1.608;2023-03-01T05:25:04;15.60;;;11.43;;
70253;SDS011;57649;42.968;1.608;2023-03-01T05:27:29;20.42;;;14.82;;
70253;SDS011;57649;42.968;1.608;2023-03-01T05:29:55;19.73;;;14.27;;
70253;SDS011;57649;42.968;1.608;2023-03-01T05:32:21;16.65;;;12.52;;
70253;SDS011;57649;42.968;1.608;2023-03-01T05:34:47;22.25;;;16.80;;
70253;SDS011;57649;42.968;1.608;2023-03-01T05:37:12;19.13;;;13.85;;
70253;SDS011;57649;42.968;1.608;2023-03-01T05:39:38;20.67;;;16.23;;
70253;SDS011;57649;42.968;1.608;2023-03-01T05:42:04;17.05;;;13.85;;
70253;SDS011;57649;42.968;1.608;2023-03-01T05:44:30;17.35;;;10.70;;
70253;SDS011;57649;42.968;1.608;2023-03-01T05:46:55;14.93;;;10.88;;
70253;SDS011;57649;42.968;1.608;2023-03-01T05:49:22;13.80;;;10.50;;
70253;SDS011;57649;42.968;1.608;2023-03-01T05:51:51;15.00;;;10.52;;
70253;SDS011;57649;42.968;1.608;2023-03-01T05:54:18;14.43;;;11.10;;
70253;SDS011;57649;42.968;1.608;2023-03-01T05:56:45;16.17;;;11.13;;
70253;SDS011;57649;42.968;1.608;2023-03-01T05:59:10;12.73;;;10.45;;
70253;SDS011;57649;42.968;1.608;2023-03-01T06:01:37;15.18;;;9.63;;
70253;SDS011;57649;42.968;1.608;2023-03-01T06:04:03;13.50;;;9.82;;
70253;SDS011;57649;42.968;1.608;2023-03-01T06:06:29;12.88;;;9.05;;
70253;SDS011;57649;42.968;1.608;2023-03-01T06:08:54;11.73;;;8.77;;
70253;SDS011;57649;42.968;1.608;2023-03-01T06:11:20;11.43;;;8.48;;
70253;SDS011;57649;42.968;1.608;2023-03-01T06:13:46;13.90;;;9.38;;
70253;SDS011;57649;42.968;1.608;2023-03-01T06:16:12;13.70;;;10.57;;
70253;SDS011;57649;42.968;1.608;2023-03-01T06:18:39;17.75;;;11.65;;
70253;SDS011;57649;42.968;1.608;2023-03-01T06:21:05;12.82;;;10.23;;
70253;SDS011;57649;42.968;1.608;2023-03-01T06:23:32;12.95;;;9.43;;
70253;SDS011;57649;42.968;1.608;2023-03-01T06:25:57;14.73;;;9.98;;
70253;SDS011;57649;42.968;1.608;2023-03-01T06:28:23;19.38;;;9.55;;
70253;SDS011;57649;42.968;1.608;2023-03-01T06:30:49;15.43;;;9.00;;
70253;SDS011;57649;42.968;1.608;2023-03-01T06:33:16;11.63;;;9.10;;
70253;SDS011;57649;42.968;1.608;2023-03-01T06:35:44;15.05;;;10.07;;
70253;SDS011;57649;42.968;1.608;2023-03-01T06:38:09;16.00;;;10.43;;
70253;SDS011;57649;42.968;1.608;2023-03-01T06:40:34;13.57;;;9.88;;
70253;SDS011;57649;42.968;1.608;2023-03-01T06:43:00;16.63;;;10.80;;
70253;SDS011;57649;42.968;1.608;2023-03-01T06:45:26;22.73;;;15.20;;
70253;SDS011;57649;42.968;1.608;2023-03-01T06:47:51;28.42;;;16.92;;
70253;SDS011;57649;42.968;1.608;2023-03-01T06:50:17;18.45;;;11.82;;
70253;SDS011;57649;42.968;1.608;2023-03-01T06:52:43;16.70;;;12.77;;
70253;SDS011;57649;42.968;1.608;2023-03-01T06:55:10;18.88;;;12.15;;
70253;SDS011;57649;42.968;1.608;2023-03-01T06:57:39;16.38;;;12.25;;
70253;SDS011;57649;42.968;1.608;2023-03-01T07:00:06;15.18;;;11.30;;
70253;SDS011;57649;42.968;1.608;2023-03-01T07:02:33;17.90;;;12.48;;
70253;SDS011;57649;42.968;1.608;2023-03-01T07:04:58;21.58;;;13.52;;
70253;SDS011;57649;42.968;1.608;2023-03-01T07:07:24;18.90;;;13.45;;
70253;SDS011;57649;42.968;1.608;2023-03-01T07:09:49;22.33;;;12.93;;
70253;SDS011;57649;42.968;1.608;2023-03-01T07:12:15;20.20;;;12.48;;
70253;SDS011;57649;42.968;1.608;2023-03-01T07:14:40;16.98;;;13.05;;
70253;SDS011;57649;42.968;1.608;2023-03-01T07:17:06;19.75;;;12.05;;
70253;SDS011;57649;42.968;1.608;2023-03-01T07:19:31;17.67;;;12.68;;
70253;SDS011;57649;42.968;1.608;2023-03-01T07:21:57;19.58;;;12.82;;
70253;SDS011;57649;42.968;1.608;2023-03-01T07:24:22;24.98;;;13.88;;
70253;SDS011;57649;42.968;1.608;2023-03-01T07:26:48;24.20;;;13.10;;
70253;SDS011;57649;42.968;1.608;2023-03-01T07:29:15;21.30;;;12.13;;
70253;SDS011;57649;42.968;1.608;2023-03-01T07:31:40;17.92;;;12.38;;
70253;SDS011;57649;42.968;1.608;2023-03-01T07:34:06;18.17;;;11.50;;
70253;SDS011;57649;42.968;1.608;2023-03-01T07:36:31;18.00;;;10.73;;
70253;SDS011;57649;42.968;1.608;2023-03-01T07:38:57;14.43;;;11.05;;
70253;SDS011;57649;42.968;1.608;2023-03-01T07:41:23;18.17;;;10.95;;
70253;SDS011;57649;42.968;1.608;2023-03-01T07:43:49;23.70;;;11.30;;
70253;SDS011;57649;42.968;1.608;2023-03-01T07:46:15;15.90;;;11.07;;
70253;SDS011;57649;42.968;1.608;2023-03-01T07:48:40;16.35;;;10.52;;
70253;SDS011;57649;42.968;1.608;2023-03-01T07:51:06;21.48;;;12.77;;
70253;SDS011;57649;42.968;1.608;2023-03-01T07:53:32;16.50;;;11.52;;
70253;SDS011;57649;42.968;1.608;2023-03-01T07:56:05;21.90;;;11.98;;
70253;SDS011;57649;42.968;1.608;2023-03-01T07:58:38;17.33;;;11.85;;
70253;SDS011;57649;42.968;1.608;2023-03-01T08:01:10;29.42;;;12.55;;
70253;SDS011;57649;42.968;1.608;2023-03-01T08:03:37;18.70;;;10.85;;
70253;SDS011;57649;42.968;1.608;2023-03-01T08:06:06;22.48;;;11.50;;
70253;SDS011;57649;42.968;1.608;2023-03-01T08:08:33;24.08;;;11.55;;
70253;SDS011;57649;42.968;1.608;2023-03-01T08:11:01;17.23;;;11.60;;
70253;SDS011;57649;42.968;1.608;2023-03-01T08:13:27;16.40;;;12.05;;
70253;SDS011;57649;42.968;1.608;2023-03-01T08:15:53;18.95;;;10.93;;
70253;SDS011;57649;42.968;1.608;2023-03-01T08:18:19;15.30;;;10.73;;
70253;SDS011;57649;42.968;1.608;2023-03-01T08:20:45;19.02;;;10.15;;
70253;SDS011;57649;42.968;1.608;2023-03-01T08:23:11;12.05;;;9.45;;
70253;SDS011;57649;42.968;1.608;2023-03-01T08:25:37;13.23;;;9.32;;
70253;SDS011;57649;42.968;1.608;2023-03-01T08:28:03;12.43;;;10.40;;
70253;SDS011;57649;42.968;1.608;2023-03-01T08:30:29;16.88;;;10.57;;
70253;SDS011;57649;42.968;1.608;2023-03-01T08:32:55;14.82;;;9.90;;
70253;SDS011;57649;42.968;1.608;2023-03-01T08:35:20;17.48;;;10.77;;
70253;SDS011;57649;42.968;1.608;2023-03-01T08:37:45;19.15;;;10.38;;
70253;SDS011;57649;42.968;1.608;2023-03-01T08:40:11;30.83;;;13.00;;
70253;SDS011;57649;42.968;1.608;2023-03-01T08:42:38;19.63;;;12.88;;
70253;SDS011;57649;42.968;1.608;2023-03-01T08:45:05;19.73;;;11.38;;
70253;SDS011;57649;42.968;1.608;2023-03-01T08:47:31;16.23;;;10.70;;
70253;SDS011;57649;42.968;1.608;2023-03-01T08:49:58;18.05;;;10.63;;
70253;SDS011;57649;42.968;1.608;2023-03-01T08:52:24;16.35;;;9.80;;
70253;SDS011;57649;42.968;1.608;2023-03-01T08:54:49;15.27;;;9.77;;
70253;SDS011;57649;42.968;1.608;2023-03-01T08:57:15;16.75;;;10.60;;
70253;SDS011;57649;42.968;1.608;2023-03-01T08:59:40;12.38;;;9.90;;
70253;SDS011;57649;42.968;1.608;2023-03-01T09:02:13;14.40;;;9.30;;
70253;SDS011;57649;42.968;1.608;2023-03-01T09:04:41;26.65;;;15.88;;
70253;SDS011;57649;42.968;1.608;2023-03-01T09:07:07;15.30;;;9.43;;
70253;SDS011;57649;42.968;1.608;2023-03-01T09:09:33;17.10;;;11.05;;
70253;SDS011;57649;42.968;1.608;2023-03-01T09:11:59;20.02;;;11.57;;
70253;SDS011;57649;42.968;1.608;2023-03-01T09:14:25;15.93;;;11.80;;
70253;SDS011;57649;42.968;1.608;2023-03-01T09:16:51;17.35;;;11.27;;
70253;SDS011;57649;42.968;1.608;2023-03-01T09:19:16;19.40;;;11.15;;
70253;SDS011;57649;42.968;1.608;2023-03-01T09:21:42;16.42;;;9.80;;
70253;SDS011;57649;42.968;1.608;2023-03-01T09:24:16;10.52;;;8.73;;
70253;SDS011;57649;42.968;1.608;2023-03-01T09:26:42;13.43;;;9.10;;
70253;SDS011;57649;42.968;1.608;2023-03-01T09:29:11;11.85;;;9.13;;
70253;SDS011;57649;42.968;1.608;2023-03-01T09:31:37;16.42;;;8.77;;
70253;SDS011;57649;42.968;1.608;2023-03-01T09:34:02;10.15;;;8.05;;
70253;SDS011;57649;42.968;1.608;2023-03-01T09:36:28;15.07;;;9.63;;
70253;SDS011;57649;42.968;1.608;2023-03-01T09:38:53;12.35;;;8.95;;
70253;SDS011;57649;42.968;1.608;2023-03-01T09:47:09;10.85;;;8.32;;
70253;SDS011;57649;42.968;1.608;2023-03-01T09:55:25;9.57;;;7.93;;
70253;SDS011;57649;42.968;1.608;2023-03-01T09:58:04;15.63;;;7.43;;
70253;SDS011;57649;42.968;1.608;2023-03-01T10:00:49;12.48;;;8.05;;
70253;SDS011;57649;42.968;1.608;2023-03-01T10:08:40;13.52;;;7.80;;
70253;SDS011;57649;42.968;1.608;2023-03-01T10:11:45;12.40;;;8.23;;
70253;SDS011;57649;42.968;1.608;2023-03-01T10:16:59;11.20;;;7.18;;
70253;SDS011;57649;42.968;1.608;2023-03-01T10:19:42;9.85;;;6.50;;
70253;SDS011;57649;42.968;1.608;2023-03-01T10:24:35;14.60;;;6.60;;
70253;SDS011;57649;42.968;1.608;2023-03-01T10:27:03;9.32;;;6.70;;
70253;SDS011;57649;42.968;1.608;2023-03-01T10:29:34;12.23;;;7.22;;
70253;SDS011;57649;42.968;1.608;2023-03-01T10:32:11;11.57;;;6.95;;
70253;SDS011;57649;42.968;1.608;2023-03-01T10:34:37;15.25;;;8.35;;
70253;SDS011;57649;42.968;1.608;2023-03-01T10:37:12;8.27;;;6.35;;
70253;SDS011;57649;42.968;1.608;2023-03-01T10:40:03;9.68;;;6.60;;
70253;SDS011;57649;42.968;1.608;2023-03-01T10:42:34;7.57;;;6.45;;
70253;SDS011;57649;42.968;1.608;2023-03-01T10:47:53;7.80;;;6.32;;
70253;SDS011;57649;42.968;1.608;2023-03-01T10:50:36;7.88;;;5.40;;
70253;SDS011;57649;42.968;1.608;2023-03-01T10:53:03;10.32;;;6.53;;
70253;SDS011;57649;42.968;1.608;2023-03-01T10:55:39;10.90;;;6.38;;
70253;SDS011;57649;42.968;1.608;2023-03-01T11:03:37;8.37;;;6.30;;
70253;SDS011;57649;42.968;1.608;2023-03-01T11:14:00;12.68;;;7.55;;
70253;SDS011;57649;42.968;1.608;2023-03-01T11:21:39;12.63;;;7.88;;
70253;SDS011;57649;42.968;1.608;2023-03-01T11:24:10;8.23;;;5.97;;
70253;SDS011;57649;42.968;1.608;2023-03-01T11:26:39;9.43;;;6.50;;
70253;SDS011;57649;42.968;1.608;2023-03-01T11:29:12;7.97;;;6.25;;
70253;SDS011;57649;42.968;1.608;2023-03-01T11:31:43;10.88;;;6.72;;
70253;SDS011;57649;42.968;1.608;2023-03-01T11:34:11;8.63;;;6.57;;
70253;SDS011;57649;42.968;1.608;2023-03-01T11:39:34;10.23;;;7.57;;
70253;SDS011;57649;42.968;1.608;2023-03-01T11:44:37;11.38;;;7.88;;
70253;SDS011;57649;42.968;1.608;2023-03-01T11:49:46;9.60;;;6.78;;
70253;SDS011;57649;42.968;1.608;2023-03-01T11:52:42;9.30;;;6.72;;
70253;SDS011;57649;42.968;1.608;2023-03-01T12:06:38;8.20;;;7.07;;
70253;SDS011;57649;42.968;1.608;2023-03-01T12:09:34;9.93;;;6.82;;
70253;SDS011;57649;42.968;1.608;2023-03-01T12:14:53;16.35;;;7.47;;
70253;SDS011;57649;42.968;1.608;2023-03-01T12:21:14;6.90;;;5.55;;
70253;SDS011;57649;42.968;1.608;2023-03-01T12:23:43;11.00;;;6.50;;
70253;SDS011;57649;42.968;1.608;2023-03-01T12:26:31;9.30;;;6.18;;
70253;SDS011;57649;42.968;1.608;2023-03-01T12:29:02;7.22;;;6.43;;
70253;SDS011;57649;42.968;1.608;2023-03-01T12:37:25;14.43;;;7.22;;
70253;SDS011;57649;42.968;1.608;2023-03-01T12:40:09;17.42;;;7.25;;
70253;SDS011;57649;42.968;1.608;2023-03-01T12:45:34;15.55;;;6.40;;
70253;SDS011;57649;42.968;1.608;2023-03-01T12:50:47;7.45;;;6.25;;
70253;SDS011;57649;42.968;1.608;2023-03-01T12:53:23;6.80;;;6.10;;
70253;SDS011;57649;42.968;1.608;2023-03-01T12:55:52;11.35;;;6.72;;
70253;SDS011;57649;42.968;1.608;2023-03-01T13:12:03;11.93;;;6.35;;
70253;SDS011;57649;42.968;1.608;2023-03-01T13:16:57;7.15;;;6.38;;
70253;SDS011;57649;42.968;1.608;2023-03-01T13:19:23;9.07;;;6.20;;
70253;SDS011;57649;42.968;1.608;2023-03-01T13:21:51;8.27;;;6.35;;
70253;SDS011;57649;42.968;1.608;2023-03-01T13:24:40;9.75;;;6.15;;
70253;SDS011;57649;42.968;1.608;2023-03-01T13:32:24;8.48;;;5.93;;
70253;SDS011;57649;42.968;1.608;2023-03-01T13:34:51;8.80;;;5.82;;
70253;SDS011;57649;42.968;1.608;2023-03-01T13:37:19;7.38;;;6.43;;
70253;SDS011;57649;42.968;1.608;2023-03-01T13:39:46;8.82;;;6.35;;
70253;SDS011;57649;42.968;1.608;2023-03-01T13:42:46;7.07;;;6.38;;
70253;SDS011;57649;42.968;1.608;2023-03-01T13:45:16;9.70;;;6.15;;
70253;SDS011;57649;42.968;1.608;2023-03-01T13:47:46;8.02;;;6.10;;
70253;SDS011;57649;42.968;1.608;2023-03-01T13:50:24;7.90;;;5.95;;
70253;SDS011;57649;42.968;1.608;2023-03-01T13:52:54;12.25;;;6.57;;
70253;SDS011;57649;42.968;1.608;2023-03-01T13:55:25;10.23;;;6.75;;
70253;SDS011;57649;42.968;1.608;2023-03-01T13:58:16;6.97;;;6.25;;
70253;SDS011;57649;42.968;1.608;2023-03-01T14:03:29;7.75;;;6.43;;
70253;SDS011;57649;42.968;1.608;2023-03-01T14:06:00;8.07;;;6.55;;
70253;SDS011;57649;42.968;1.608;2023-03-01T14:08:35;7.10;;;5.85;;
70253;SDS011;57649;42.968;1.608;2023-03-01T14:19:17;7.97;;;6.93;;
70253;SDS011;57649;42.968;1.608;2023-03-01T14:21:49;8.05;;;6.63;;
70253;SDS011;57649;42.968;1.608;2023-03-01T14:24:48;8.63;;;6.60;;
70253;SDS011;57649;42.968;1.608;2023-03-01T14:27:16;8.25;;;6.72;;
70253;SDS011;57649;42.968;1.608;2023-03-01T14:29:43;9.07;;;6.63;;
70253;SDS011;57649;42.968;1.608;2023-03-01T14:34:44;8.40;;;6.40;;
70253;SDS011;57649;42.968;1.608;2023-03-01T14:39:43;9.95;;;6.80;;
70253;SDS011;57649;42.968;1.608;2023-03-01T14:42:08;8.90;;;7.07;;
70253;SDS011;57649;42.968;1.608;2023-03-01T14:44:34;8.50;;;6.55;;
70253;SDS011;57649;42.968;1.608;2023-03-01T14:47:02;9.48;;;6.95;;
70253;SDS011;57649;42.968;1.608;2023-03-01T14:49:29;9.88;;;7.00;;
70253;SDS011;57649;42.968;1.608;2023-03-01T14:52:04;14.05;;;7.57;;
70253;SDS011;57649;42.968;1.608;2023-03-01T14:54:37;14.65;;;8.90;;
70253;SDS011;57649;42.968;1.608;2023-03-01T14:57:28;11.82;;;7.60;;
70253;SDS011;57649;42.968;1.608;2023-03-01T14:59:57;9.45;;;7.15;;
70253;SDS011;57649;42.968;1.608;2023-03-01T15:02:26;7.97;;;6.38;;
70253;SDS011;57649;42.968;1.608;2023-03-01T15:04:55;9.82;;;7.68;;
70253;SDS011;57649;42.968;1.608;2023-03-01T15:07:24;12.43;;;6.70;;
70253;SDS011;57649;42.968;1.608;2023-03-01T15:09:53;10.85;;;7.15;;
70253;SDS011;57649;42.968;1.608;2023-03-01T15:14:53;12.48;;;7.50;;
70253;SDS011;57649;42.968;1.608;2023-03-01T15:17:38;10.15;;;7.43;;
70253;SDS011;57649;42.968;1.608;2023-03-01T15:20:05;11.15;;;7.72;;
70253;SDS011;57649;42.968;1.608;2023-03-01T15:22:43;12.15;;;7.60;;
70253;SDS011;57649;42.968;1.608;2023-03-01T15:25:16;9.20;;;7.28;;
70253;SDS011;57649;42.968;1.608;2023-03-01T15:27:47;9.13;;;7.63;;
70253;SDS011;57649;42.968;1.608;2023-03-01T15:30:36;9.93;;;7.78;;
70253;SDS011;57649;42.968;1.608;2023-03-01T15:35:51;11.10;;;8.30;;
70253;SDS011;57649;42.968;1.608;2023-03-01T15:44:17;11.77;;;9.15;;
70253;SDS011;57649;42.968;1.608;2023-03-01T15:46:58;10.93;;;8.48;;
70253;SDS011;57649;42.968;1.608;2023-03-01T15:52:10;11.68;;;7.55;;
70253;SDS011;57649;42.968;1.608;2023-03-01T15:54:42;9.60;;;7.70;;
70253;SDS011;57649;42.968;1.608;2023-03-01T15:57:10;10.30;;;7.53;;
70253;SDS011;57649;42.968;1.608;2023-03-01T15:59:39;8.15;;;7.35;;
70253;SDS011;57649;42.968;1.608;2023-03-01T16:02:08;13.75;;;7.80;;
70253;SDS011;57649;42.968;1.608;2023-03-01T16:04:39;11.05;;;7.95;;
70253;SDS011;57649;42.968;1.608;2023-03-01T16:07:05;18.02;;;12.07;;
70253;SDS011;57649;42.968;1.608;2023-03-01T16:09:31;14.77;;;7.30;;
70253;SDS011;57649;42.968;1.608;2023-03-01T16:11:57;7.95;;;7.13;;
70253;SDS011;57649;42.968;1.608;2023-03-01T16:14:23;9.73;;;7.57;;
70253;SDS011;57649;42.968;1.608;2023-03-01T16:16:48;12.52;;;7.75;;
70253;SDS011;57649;42.968;1.608;2023-03-01T16:19:14;9.07;;;7.10;;
70253;SDS011;57649;42.968;1.608;2023-03-01T16:21:40;12.82;;;8.48;;
70253;SDS011;57649;42.968;1.608;2023-03-01T16:24:07;9.73;;;7.07;;
70253;SDS011;57649;42.968;1.608;2023-03-01T16:26:33;9.57;;;7.60;;
70253;SDS011;57649;42.968;1.608;2023-03-01T16:28:58;9.70;;;7.20;;
70253;SDS011;57649;42.968;1.608;2023-03-01T16:31:24;11.38;;;8.85;;
70253;SDS011;57649;42.968;1.608;2023-03-01T16:33:55;14.68;;;8.63;;
70253;SDS011;57649;42.968;1.608;2023-03-01T16:36:21;13.55;;;9.15;;
70253;SDS011;57649;42.968;1.608;2023-03-01T16:38:49;9.15;;;7.95;;
70253;SDS011;57649;42.968;1.608;2023-03-01T16:41:16;9.20;;;7.90;;
70253;SDS011;57649;42.968;1.608;2023-03-01T16:43:43;11.38;;;9.27;;
70253;SDS011;57649;42.968;1.608;2023-03-01T16:46:12;9.63;;;7.60;;
70253;SDS011;57649;42.968;1.608;2023-03-01T16:48:42;9.23;;;7.82;;
70253;SDS011;57649;42.968;1.608;2023-03-01T16:51:07;9.82;;;8.45;;
70253;SDS011;57649;42.968;1.608;2023-03-01T16:53:34;10.98;;;8.57;;
70253;SDS011;57649;42.968;1.608;2023-03-01T16:56:04;10.43;;;7.75;;
70253;SDS011;57649;42.968;1.608;2023-03-01T16:58:31;10.43;;;7.43;;
70253;SDS011;57649;42.968;1.608;2023-03-01T17:01:02;11.02;;;8.73;;
70253;SDS011;57649;42.968;1.608;2023-03-01T17:03:29;10.80;;;7.82;;
70253;SDS011;57649;42.968;1.608;2023-03-01T17:05:54;10.88;;;8.50;;
70253;SDS011;57649;42.968;1.608;2023-03-01T17:08:20;9.98;;;7.72;;